M/V Bugra Tomba — TCEJ — position and weather

sailwx.info

Track history (hours):
 
Tides and Currents Weather Stations Pressure Air Temp Water Temp Dewpoint Dewpoint Depression Visibility Wind Speed Wind Dir Waves Ship Positions

M/V Bugra Tomba

Last reported at 2015-Jan-28 09:15 UTC. Time now 2015-Jan-29 18:23 UTC.
Position N 44°20' E 037°11'.

Length 88 m; draft 6.3 m.

Type: Ship. MMSI: 271000025.

Date/timePositionNaut miles runAvg speedWind from/ knotsBaromVisibWave heightAir tempDewpointWater temp
2015-Jan-28 09:15N 44°20' E 037°11'7 9.8
2015-Jan-28 08:33N 44°23' E 037°19'1010.3
2015-Jan-28 07:33N 44°28' E 037°32'1110.6
2015-Jan-28 06:33N 44°34' E 037°44'8 8.3
2015-Jan-28 05:33N 44°41' E 037°49'3 2.9
2015-Jan-28 04:33N 44°44' E 037°48'0 0.0
2015-Jan-28 03:33N 44°44' E 037°48'0 0.0
2015-Jan-28 02:33N 44°44' E 037°48'0 0.0
2015-Jan-28 01:33N 44°44' E 037°48'0 0.0
2015-Jan-28 00:33N 44°44' E 037°48'0 0.0
2015-Jan-27 23:33N 44°44' E 037°48'0 0.0
2015-Jan-27 22:33N 44°44' E 037°48'0 0.0
2015-Jan-27 21:33N 44°44' E 037°48'0 0.0
2015-Jan-27 20:33N 44°44' E 037°48'0 0.0
2015-Jan-27 19:33N 44°44' E 037°48'0 0.0
2015-Jan-27 18:33N 44°44' E 037°48'0 0.0
2015-Jan-27 17:33N 44°44' E 037°48'0 0.0
2015-Jan-27 16:33N 44°44' E 037°48'0 0.0
2015-Jan-27 15:33N 44°44' E 037°48'0 0.0
2015-Jan-27 14:33N 44°44' E 037°48'0 0.0
2015-Jan-27 13:33N 44°44' E 037°48'0 0.1
2015-Jan-27 12:33N 44°44' E 037°48'0 0.0
2015-Jan-27 11:33N 44°44' E 037°48'0 0.0
2015-Jan-27 10:33N 44°44' E 037°48'0 0.0
2015-Jan-27 09:33N 44°44' E 037°48'0 0.0
2015-Jan-27 08:33N 44°44' E 037°48'0 0.0
2015-Jan-27 07:33N 44°44' E 037°48'0 0.0
2015-Jan-27 06:33N 44°44' E 037°48'0 0.0
2015-Jan-27 05:33N 44°44' E 037°48'0 0.0
2015-Jan-27 04:33N 44°44' E 037°48'0 0.0
2015-Jan-27 03:33N 44°44' E 037°48'0 0.0
2015-Jan-27 02:33N 44°44' E 037°48'0 0.0
2015-Jan-27 01:33N 44°44' E 037°48'0 0.1
2015-Jan-27 00:33N 44°44' E 037°48'0 0.1
2015-Jan-26 23:33N 44°44' E 037°48'0 0.0
2015-Jan-26 22:33N 44°44' E 037°48'0 0.1
2015-Jan-26 21:33N 44°44' E 037°48'0 0.0
2015-Jan-26 20:33N 44°44' E 037°48'0 0.0
2015-Jan-26 19:33N 44°44' E 037°48'0 0.0
2015-Jan-26 18:33N 44°44' E 037°48'0 0.0
2015-Jan-26 17:33N 44°44' E 037°48'0 0.0
2015-Jan-26 16:33N 44°44' E 037°48'0 0.0
2015-Jan-26 15:33N 44°44' E 037°48'0 0.0
2015-Jan-26 14:33N 44°44' E 037°48'0 0.0
2015-Jan-26 13:33N 44°44' E 037°48'0 0.0
2015-Jan-26 12:33N 44°44' E 037°48'0 0.0
2015-Jan-26 11:33N 44°44' E 037°48'0 0.0
2015-Jan-26 10:33N 44°44' E 037°48'0 0.0
2015-Jan-26 09:33N 44°44' E 037°48'0 0.0
2015-Jan-26 08:33N 44°44' E 037°48'0 0.0
2015-Jan-26 07:33N 44°44' E 037°48'0 0.0
2015-Jan-26 06:33N 44°44' E 037°48'0 0.0
2015-Jan-26 05:33N 44°44' E 037°48'0 0.0
2015-Jan-26 04:33N 44°44' E 037°48'0 0.0
2015-Jan-26 03:33N 44°44' E 037°48'0 0.0
2015-Jan-26 02:33N 44°44' E 037°48'0 0.0
2015-Jan-26 01:33N 44°44' E 037°48'0 0.0
2015-Jan-26 00:33N 44°44' E 037°48'0 0.0
2015-Jan-25 23:33N 44°44' E 037°48'0 0.0
2015-Jan-25 22:33N 44°44' E 037°48'0 0.0
2015-Jan-25 21:33N 44°44' E 037°48'0 0.0
2015-Jan-25 20:33N 44°44' E 037°48'0 0.0
2015-Jan-25 19:33N 44°44' E 037°48'0 0.0
2015-Jan-25 18:33N 44°44' E 037°48'0 0.0
2015-Jan-25 17:33N 44°44' E 037°48'0 0.0
2015-Jan-25 16:33N 44°44' E 037°48'2 2.0
2015-Jan-25 15:33N 44°42' E 037°49'4 4.2
2015-Jan-25 14:33N 44°39' E 037°52'2 1.5
2015-Jan-25 13:32N 44°39' E 037°54'0 0.0
2015-Jan-25 12:32N 44°39' E 037°54'0 0.1
2015-Jan-25 11:32N 44°40' E 037°54'0 0.1
2015-Jan-25 10:32N 44°39' E 037°54'0 0.0
2015-Jan-25 09:32N 44°39' E 037°54'0 0.0
2015-Jan-25 08:32N 44°39' E 037°54'0 0.0
2015-Jan-25 07:33N 44°40' E 037°54'0 0.1
2015-Jan-25 06:33N 44°39' E 037°54'0 0.1
2015-Jan-25 05:32N 44°39' E 037°54'0 0.1
2015-Jan-25 04:32N 44°39' E 037°54'0 0.1
2015-Jan-25 03:32N 44°39' E 037°54'0 0.0
2015-Jan-25 02:32N 44°39' E 037°54'0 0.0
2015-Jan-25 01:32N 44°39' E 037°54'0 0.1
2015-Jan-25 00:32N 44°39' E 037°54'0 0.1
2015-Jan-24 23:32N 44°39' E 037°54'0 0.1
2015-Jan-24 22:32N 44°39' E 037°54'0 0.0
2015-Jan-24 21:32N 44°39' E 037°54'0 0.0
2015-Jan-24 20:32N 44°39' E 037°54'0 0.0
2015-Jan-24 19:32N 44°39' E 037°54'0 0.0
2015-Jan-24 18:32N 44°39' E 037°54'0 0.1
2015-Jan-24 17:32N 44°39' E 037°54'0 0.0
2015-Jan-24 16:32N 44°39' E 037°54'0 0.1
2015-Jan-24 15:32N 44°39' E 037°54'0 0.0
2015-Jan-24 14:32N 44°39' E 037°54'0 0.0
2015-Jan-24 13:32N 44°39' E 037°54'0 0.0
2015-Jan-24 12:32N 44°39' E 037°54'0 0.0
2015-Jan-24 11:32N 44°39' E 037°54'0 0.0
2015-Jan-24 10:32N 44°39' E 037°54'0 0.0
2015-Jan-24 09:32N 44°39' E 037°54'0 0.0
2015-Jan-24 08:32N 44°39' E 037°54'0 0.0
2015-Jan-24 07:32N 44°39' E 037°54'0 0.0
2015-Jan-24 06:32N 44°39' E 037°54'0 0.0
2015-Jan-24 05:32N 44°39' E 037°54'0 0.0
2015-Jan-24 04:32N 44°39' E 037°54'0 0.0
2015-Jan-24 03:32N 44°39' E 037°54'0 0.0
2015-Jan-24 02:32N 44°39' E 037°54'0 0.0
2015-Jan-24 01:32N 44°39' E 037°54'0 0.0
2015-Jan-24 00:32N 44°39' E 037°54'0 0.0
2015-Jan-23 23:29N 44°39' E 037°54'0 0.0
2015-Jan-23 22:32N 44°39' E 037°54'0 0.0
2015-Jan-23 21:32N 44°39' E 037°54'0 0.0
2015-Jan-23 20:32N 44°39' E 037°54'0 0.0
2015-Jan-23 19:32N 44°39' E 037°54'0 0.0
2015-Jan-23 18:32N 44°39' E 037°54'0 0.0
2015-Jan-23 17:32N 44°39' E 037°54'0 0.0
2015-Jan-23 16:32N 44°39' E 037°54'0 0.1
2015-Jan-23 15:32N 44°39' E 037°54'0 0.0
2015-Jan-23 14:32N 44°39' E 037°54'0 0.1
2015-Jan-23 13:29N 44°39' E 037°54'0 0.2
2015-Jan-23 12:32N 44°39' E 037°54'0 0.0
2015-Jan-23 11:32N 44°39' E 037°54'0 0.0
2015-Jan-23 10:32N 44°39' E 037°54'0 0.0
2015-Jan-23 09:32N 44°39' E 037°54'0 0.0
2015-Jan-23 08:32N 44°39' E 037°54'0 0.0
2015-Jan-23 07:32N 44°39' E 037°54'0 0.1
2015-Jan-23 06:32N 44°39' E 037°54'0 0.0
2015-Jan-23 05:32N 44°39' E 037°54'0 0.1
2015-Jan-23 04:32N 44°39' E 037°54'0 0.0
2015-Jan-23 03:29N 44°39' E 037°54'0 0.1
2015-Jan-23 02:33N 44°39' E 037°54'5 5.1
2015-Jan-23 01:33N 44°35' E 037°52'1110.5
2015-Jan-23 00:33N 44°28' E 037°40'4510.8
2015-Jan-22 20:25N 44°10' E 036°42'1111.3
2015-Jan-22 19:27N 44°04' E 036°30'1311.7
2015-Jan-22 18:19N 43°56' E 036°15'911.8
2015-Jan-22 17:33N 43°51' E 036°05'1211.6
2015-Jan-22 16:32N 43°43' E 035°52'1111.3
2015-Jan-22 15:33N 43°37' E 035°40'1111.3
2015-Jan-22 14:33N 43°30' E 035°28'1110.9
2015-Jan-22 13:33N 43°23' E 035°16'1111.0
2015-Jan-22 12:33N 43°17' E 035°04'26611.8
2015-Jan-21 14:04N 41°22' E 029°39'611.9
2015-Jan-21 13:33N 41°20' E 029°31'1311.5
2015-Jan-21 12:26N 41°16' E 029°15'  
Track history (hours):
 
Tides and Currents Weather Stations Pressure Air Temp Water Temp Dewpoint Dewpoint Depression Visibility Wind Speed Wind Dir Waves Ship Positions

M/V Bugra Tomba

Last reported at 2015-Jan-28 09:15 UTC. Time now 2015-Jan-29 18:23 UTC.
Position N 44°20' E 037°11'.

Length 88 m; draft 6.3 m.

Type: Ship. MMSI: 271000025.

Date/timePositionNaut miles runAvg speedWind from/ knotsBaromVisibWave heightAir tempDewpointWater temp
2015-Jan-28 09:15N 44°20' E 037°11'7 9.8
2015-Jan-28 08:33N 44°23' E 037°19'1010.3
2015-Jan-28 07:33N 44°28' E 037°32'1110.6
2015-Jan-28 06:33N 44°34' E 037°44'8 8.3
2015-Jan-28 05:33N 44°41' E 037°49'3 2.9
2015-Jan-28 04:33N 44°44' E 037°48'0 0.0
2015-Jan-28 03:33N 44°44' E 037°48'0 0.0
2015-Jan-28 02:33N 44°44' E 037°48'0 0.0
2015-Jan-28 01:33N 44°44' E 037°48'0 0.0
2015-Jan-28 00:33N 44°44' E 037°48'0 0.0
2015-Jan-27 23:33N 44°44' E 037°48'0 0.0
2015-Jan-27 22:33N 44°44' E 037°48'0 0.0
2015-Jan-27 21:33N 44°44' E 037°48'0 0.0
2015-Jan-27 20:33N 44°44' E 037°48'0 0.0
2015-Jan-27 19:33N 44°44' E 037°48'0 0.0
2015-Jan-27 18:33N 44°44' E 037°48'0 0.0
2015-Jan-27 17:33N 44°44' E 037°48'0 0.0
2015-Jan-27 16:33N 44°44' E 037°48'0 0.0
2015-Jan-27 15:33N 44°44' E 037°48'0 0.0
2015-Jan-27 14:33N 44°44' E 037°48'0 0.0
2015-Jan-27 13:33N 44°44' E 037°48'0 0.1
2015-Jan-27 12:33N 44°44' E 037°48'0 0.0
2015-Jan-27 11:33N 44°44' E 037°48'0 0.0
2015-Jan-27 10:33N 44°44' E 037°48'0 0.0
2015-Jan-27 09:33N 44°44' E 037°48'0 0.0
2015-Jan-27 08:33N 44°44' E 037°48'0 0.0
2015-Jan-27 07:33N 44°44' E 037°48'0 0.0
2015-Jan-27 06:33N 44°44' E 037°48'0 0.0
2015-Jan-27 05:33N 44°44' E 037°48'0 0.0
2015-Jan-27 04:33N 44°44' E 037°48'0 0.0
2015-Jan-27 03:33N 44°44' E 037°48'0 0.0
2015-Jan-27 02:33N 44°44' E 037°48'0 0.0
2015-Jan-27 01:33N 44°44' E 037°48'0 0.1
2015-Jan-27 00:33N 44°44' E 037°48'0 0.1
2015-Jan-26 23:33N 44°44' E 037°48'0 0.0
2015-Jan-26 22:33N 44°44' E 037°48'0 0.1
2015-Jan-26 21:33N 44°44' E 037°48'0 0.0
2015-Jan-26 20:33N 44°44' E 037°48'0 0.0
2015-Jan-26 19:33N 44°44' E 037°48'0 0.0
2015-Jan-26 18:33N 44°44' E 037°48'0 0.0
2015-Jan-26 17:33N 44°44' E 037°48'0 0.0
2015-Jan-26 16:33N 44°44' E 037°48'0 0.0
2015-Jan-26 15:33N 44°44' E 037°48'0 0.0
2015-Jan-26 14:33N 44°44' E 037°48'0 0.0
2015-Jan-26 13:33N 44°44' E 037°48'0 0.0
2015-Jan-26 12:33N 44°44' E 037°48'0 0.0
2015-Jan-26 11:33N 44°44' E 037°48'0 0.0
2015-Jan-26 10:33N 44°44' E 037°48'0 0.0
2015-Jan-26 09:33N 44°44' E 037°48'0 0.0
2015-Jan-26 08:33N 44°44' E 037°48'0 0.0
2015-Jan-26 07:33N 44°44' E 037°48'0 0.0
2015-Jan-26 06:33N 44°44' E 037°48'0 0.0
2015-Jan-26 05:33N 44°44' E 037°48'0 0.0
2015-Jan-26 04:33N 44°44' E 037°48'0 0.0
2015-Jan-26 03:33N 44°44' E 037°48'0 0.0
2015-Jan-26 02:33N 44°44' E 037°48'0 0.0
2015-Jan-26 01:33N 44°44' E 037°48'0 0.0
2015-Jan-26 00:33N 44°44' E 037°48'0 0.0
2015-Jan-25 23:33N 44°44' E 037°48'0 0.0
2015-Jan-25 22:33N 44°44' E 037°48'0 0.0
2015-Jan-25 21:33N 44°44' E 037°48'0 0.0
2015-Jan-25 20:33N 44°44' E 037°48'0 0.0
2015-Jan-25 19:33N 44°44' E 037°48'0 0.0
2015-Jan-25 18:33N 44°44' E 037°48'0 0.0
2015-Jan-25 17:33N 44°44' E 037°48'0 0.0
2015-Jan-25 16:33N 44°44' E 037°48'2 2.0
2015-Jan-25 15:33N 44°42' E 037°49'4 4.2
2015-Jan-25 14:33N 44°39' E 037°52'2 1.5
2015-Jan-25 13:32N 44°39' E 037°54'0 0.0
2015-Jan-25 12:32N 44°39' E 037°54'0 0.1
2015-Jan-25 11:32N 44°40' E 037°54'0 0.1
2015-Jan-25 10:32N 44°39' E 037°54'0 0.0
2015-Jan-25 09:32N 44°39' E 037°54'0 0.0
2015-Jan-25 08:32N 44°39' E 037°54'0 0.0
2015-Jan-25 07:33N 44°40' E 037°54'0 0.1
2015-Jan-25 06:33N 44°39' E 037°54'0 0.1
2015-Jan-25 05:32N 44°39' E 037°54'0 0.1
2015-Jan-25 04:32N 44°39' E 037°54'0 0.1
2015-Jan-25 03:32N 44°39' E 037°54'0 0.0
2015-Jan-25 02:32N 44°39' E 037°54'0 0.0
2015-Jan-25 01:32N 44°39' E 037°54'0 0.1
2015-Jan-25 00:32N 44°39' E 037°54'0 0.1
2015-Jan-24 23:32N 44°39' E 037°54'0 0.1
2015-Jan-24 22:32N 44°39' E 037°54'0 0.0
2015-Jan-24 21:32N 44°39' E 037°54'0 0.0
2015-Jan-24 20:32N 44°39' E 037°54'0 0.0
2015-Jan-24 19:32N 44°39' E 037°54'0 0.0
2015-Jan-24 18:32N 44°39' E 037°54'0 0.1
2015-Jan-24 17:32N 44°39' E 037°54'0 0.0
2015-Jan-24 16:32N 44°39' E 037°54'0 0.1
2015-Jan-24 15:32N 44°39' E 037°54'0 0.0
2015-Jan-24 14:32N 44°39' E 037°54'0 0.0
2015-Jan-24 13:32N 44°39' E 037°54'0 0.0
2015-Jan-24 12:32N 44°39' E 037°54'0 0.0
2015-Jan-24 11:32N 44°39' E 037°54'0 0.0
2015-Jan-24 10:32N 44°39' E 037°54'0 0.0
2015-Jan-24 09:32N 44°39' E 037°54'0 0.0
2015-Jan-24 08:32N 44°39' E 037°54'0 0.0
2015-Jan-24 07:32N 44°39' E 037°54'0 0.0
2015-Jan-24 06:32N 44°39' E 037°54'0 0.0
2015-Jan-24 05:32N 44°39' E 037°54'0 0.0
2015-Jan-24 04:32N 44°39' E 037°54'0 0.0
2015-Jan-24 03:32N 44°39' E 037°54'0 0.0
2015-Jan-24 02:32N 44°39' E 037°54'0 0.0
2015-Jan-24 01:32N 44°39' E 037°54'0 0.0
2015-Jan-24 00:32N 44°39' E 037°54'0 0.0
2015-Jan-23 23:29N 44°39' E 037°54'0 0.0
2015-Jan-23 22:32N 44°39' E 037°54'0 0.0
2015-Jan-23 21:32N 44°39' E 037°54'0 0.0
2015-Jan-23 20:32N 44°39' E 037°54'0 0.0
2015-Jan-23 19:32N 44°39' E 037°54'0 0.0
2015-Jan-23 18:32N 44°39' E 037°54'0 0.0
2015-Jan-23 17:32N 44°39' E 037°54'0 0.0
2015-Jan-23 16:32N 44°39' E 037°54'0 0.1
2015-Jan-23 15:32N 44°39' E 037°54'0 0.0
2015-Jan-23 14:32N 44°39' E 037°54'0 0.1
2015-Jan-23 13:29N 44°39' E 037°54'0 0.2
2015-Jan-23 12:32N 44°39' E 037°54'0 0.0
2015-Jan-23 11:32N 44°39' E 037°54'0 0.0
2015-Jan-23 10:32N 44°39' E 037°54'0 0.0
2015-Jan-23 09:32N 44°39' E 037°54'0 0.0
2015-Jan-23 08:32N 44°39' E 037°54'0 0.0
2015-Jan-23 07:32N 44°39' E 037°54'0 0.1
2015-Jan-23 06:32N 44°39' E 037°54'0 0.0
2015-Jan-23 05:32N 44°39' E 037°54'0 0.1
2015-Jan-23 04:32N 44°39' E 037°54'0 0.0
2015-Jan-23 03:29N 44°39' E 037°54'0 0.1
2015-Jan-23 02:33N 44°39' E 037°54'5 5.1
2015-Jan-23 01:33N 44°35' E 037°52'1110.5
2015-Jan-23 00:33N 44°28' E 037°40'4510.8
2015-Jan-22 20:25N 44°10' E 036°42'1111.3
2015-Jan-22 19:27N 44°04' E 036°30'1311.7
2015-Jan-22 18:19N 43°56' E 036°15'911.8
2015-Jan-22 17:33N 43°51' E 036°05'1211.6
2015-Jan-22 16:32N 43°43' E 035°52'1111.3
2015-Jan-22 15:33N 43°37' E 035°40'1111.3
2015-Jan-22 14:33N 43°30' E 035°28'1110.9
2015-Jan-22 13:33N 43°23' E 035°16'1111.0
2015-Jan-22 12:33N 43°17' E 035°04'26611.8
2015-Jan-21 14:04N 41°22' E 029°39'611.9
2015-Jan-21 13:33N 41°20' E 029°31'1311.5
2015-Jan-21 12:26N 41°16' E 029°15'  

Dump ship's entire track history